createdAt,value
2023-01-04T00:01:15.172Z,0.10
2023-01-04T00:03:43.895Z,0.10
2023-01-04T00:06:13.630Z,0.10
2023-01-04T00:08:42.118Z,0.10
2023-01-04T00:11:20.167Z,0.10
2023-01-04T00:13:49.253Z,0.40
2023-01-04T00:16:19.091Z,0.10
2023-01-04T00:18:47.335Z,0.10
2023-01-04T00:21:19.773Z,0.10
2023-01-04T00:23:49.354Z,0.10
2023-01-04T00:26:20.515Z,0.00
2023-01-04T00:28:54.253Z,0.10
2023-01-04T00:31:18.747Z,0.10
2023-01-04T00:33:46.934Z,0.10
2023-01-04T00:36:15.719Z,19.27
2023-01-04T00:38:43.931Z,0.10
2023-01-04T00:41:34.404Z,0.10
2023-01-04T00:43:42.857Z,0.10
2023-01-04T00:46:11.553Z,0.10
2023-01-04T00:48:40.555Z,0.20
2023-01-04T00:51:10.622Z,0.10
2023-01-04T00:53:38.801Z,0.10
2023-01-04T00:56:07.204Z,0.20
2023-01-04T00:58:35.397Z,0.20
2023-01-04T01:01:08.506Z,0.10
2023-01-04T01:03:38.980Z,0.20
2023-01-04T01:06:07.676Z,0.20
2023-01-04T01:08:35.968Z,0.20
2023-01-04T01:11:05.283Z,0.20
2023-01-04T01:13:33.952Z,0.10
2023-01-04T01:16:06.344Z,0.20
2023-01-04T01:18:35.398Z,0.10
2023-01-04T01:21:08.324Z,0.10
2023-01-04T01:23:36.506Z,0.20
2023-01-04T01:26:06.220Z,0.10
2023-01-04T01:28:34.995Z,0.10
2023-01-04T01:31:08.695Z,0.20
2023-01-04T01:33:37.680Z,0.10
2023-01-04T01:36:06.130Z,0.20
2023-01-04T01:38:34.519Z,0.47
2023-01-04T01:41:02.803Z,0.10
2023-01-04T01:43:50.531Z,0.20
2023-01-04T01:46:26.449Z,0.10
2023-01-04T01:48:56.167Z,0.10
2023-01-04T01:51:25.011Z,0.10
2023-01-04T01:53:54.754Z,0.10
2023-01-04T01:56:22.980Z,0.10
2023-01-04T01:58:52.733Z,0.20
2023-01-04T02:01:21.029Z,0.72
2023-01-04T02:03:49.400Z,0.40
2023-01-04T02:06:19.208Z,0.78
2023-01-04T02:08:48.975Z,0.10
2023-01-04T02:11:17.353Z,0.10
2023-01-04T02:14:03.811Z,0.23
2023-01-04T02:16:49.839Z,0.30
2023-01-04T02:19:35.905Z,0.10
2023-01-04T02:22:22.108Z,0.20
2023-01-04T02:24:54.508Z,0.20
2023-01-04T02:27:27.028Z,0.20
2023-01-04T02:29:59.467Z,0.20
2023-01-04T02:32:32.158Z,0.10
2023-01-04T02:35:01.885Z,0.20
2023-01-04T02:37:37.626Z,0.20
2023-01-04T02:40:10.336Z,0.10
2023-01-04T02:43:00.966Z,0.10
2023-01-04T02:45:39.430Z,0.20
2023-01-04T02:48:25.634Z,0.20
2023-01-04T02:50:56.785Z,0.20
2023-01-04T02:53:29.542Z,0.10
2023-01-04T02:56:08.381Z,0.20
2023-01-04T02:58:40.830Z,0.20
2023-01-04T03:01:45.221Z,0.10
2023-01-04T03:04:41.202Z,0.10
2023-01-04T03:07:27.113Z,0.10
2023-01-04T03:09:56.884Z,0.10
2023-01-04T03:12:32.472Z,0.20
2023-01-04T03:15:02.296Z,0.10
2023-01-04T03:17:34.930Z,0.20
2023-01-04T03:22:52.876Z,0.10
2023-01-04T03:25:40.262Z,0.10
2023-01-04T03:28:27.205Z,0.10
2023-01-04T03:31:14.666Z,0.10
2023-01-04T03:34:00.716Z,0.10
2023-01-04T03:36:46.993Z,0.10
2023-01-04T03:39:40.322Z,0.10
2023-01-04T03:42:46.038Z,0.23
2023-01-04T03:45:39.564Z,0.10
2023-01-04T03:48:30.169Z,0.10
2023-01-04T03:50:59.894Z,0.10
2023-01-04T03:53:29.063Z,0.17
2023-01-04T03:55:59.830Z,0.00
2023-01-04T03:58:28.229Z,0.10
2023-01-04T04:00:58.289Z,0.10
2023-01-04T04:03:26.591Z,0.10
2023-01-04T04:06:12.570Z,0.10
2023-01-04T04:08:40.785Z,0.00
2023-01-04T04:11:26.665Z,0.20
2023-01-04T04:13:54.904Z,0.10
2023-01-04T04:16:23.206Z,0.10
2023-01-04T04:18:51.646Z,0.20
2023-01-04T04:21:19.839Z,0.10
2023-01-04T04:23:48.140Z,0.20
2023-01-04T04:26:16.380Z,0.10
2023-01-04T04:28:44.605Z,0.00
2023-01-04T04:31:13.338Z,0.00
2023-01-04T04:33:41.614Z,0.10
2023-01-04T04:36:10.281Z,0.10
2023-01-04T04:38:38.581Z,0.10
2023-01-04T04:41:31.976Z,0.10
2023-01-04T04:44:00.362Z,0.10
2023-01-04T04:46:28.942Z,0.03
2023-01-04T04:48:58.797Z,0.10
2023-01-04T04:51:27.183Z,0.10
2023-01-04T04:53:55.430Z,0.10
2023-01-04T04:56:23.656Z,0.10
2023-01-04T04:58:52.030Z,0.08
2023-01-04T05:01:20.315Z,0.00
2023-01-04T05:03:48.575Z,0.10
2023-01-04T05:06:16.822Z,0.00
2023-01-04T05:08:45.018Z,0.13
2023-01-04T05:11:13.609Z,0.10
2023-01-04T05:13:41.902Z,0.10
2023-01-04T05:16:10.588Z,0.10
2023-01-04T05:18:38.826Z,0.10
2023-01-04T05:21:07.134Z,0.00
2023-01-04T05:23:35.360Z,0.10
2023-01-04T05:26:03.664Z,0.10
2023-01-04T05:28:31.952Z,0.10
2023-01-04T05:31:00.247Z,0.10
2023-01-04T05:33:29.866Z,0.10
2023-01-04T05:35:59.180Z,0.10
2023-01-04T05:38:27.405Z,0.10
2023-01-04T05:40:55.839Z,0.10
2023-01-04T05:43:24.519Z,0.10
2023-01-04T05:45:57.024Z,0.10
2023-01-04T05:48:25.686Z,0.10
2023-01-04T05:50:54.336Z,0.10
2023-01-04T05:53:22.550Z,0.10
2023-01-04T05:55:50.769Z,0.10
2023-01-04T05:58:19.042Z,0.10
2023-01-04T06:00:47.247Z,0.10
2023-01-04T06:03:15.574Z,0.10
2023-01-04T06:05:43.927Z,0.00
2023-01-04T06:08:13.368Z,0.00
2023-01-04T06:10:41.567Z,0.10
2023-01-04T06:13:10.017Z,0.10
2023-01-04T06:15:43.014Z,0.10
2023-01-04T06:18:13.134Z,0.10
2023-01-04T06:20:38.049Z,0.10
2023-01-04T06:23:06.372Z,0.10
2023-01-04T06:25:34.646Z,0.10
2023-01-04T06:28:02.915Z,0.10
2023-01-04T06:30:31.254Z,0.10
2023-01-04T06:32:59.429Z,0.00
2023-01-04T06:35:27.701Z,0.17
2023-01-04T06:37:55.921Z,0.10
2023-01-04T06:40:24.146Z,0.00
2023-01-04T06:42:52.342Z,0.00
2023-01-04T06:45:20.664Z,0.00
2023-01-04T06:47:48.887Z,0.10
2023-01-04T06:50:17.144Z,0.10
2023-01-04T06:52:45.326Z,0.10
2023-01-04T06:55:13.648Z,0.10
2023-01-04T06:57:41.882Z,0.10
2023-01-04T07:00:10.466Z,0.10
2023-01-04T07:02:38.956Z,0.05
2023-01-04T07:05:08.839Z,0.10
2023-01-04T07:07:37.054Z,0.10
2023-01-04T07:10:09.823Z,0.10
2023-01-04T07:12:35.563Z,0.00
2023-01-04T07:15:03.847Z,0.10
2023-01-04T07:17:33.699Z,0.10
2023-01-04T07:20:01.933Z,0.13
2023-01-04T07:22:30.431Z,0.20
2023-01-04T07:24:58.628Z,0.10
2023-01-04T07:27:26.853Z,0.10
2023-01-04T07:29:55.084Z,0.10
2023-01-04T07:32:23.393Z,0.00
2023-01-04T07:34:51.703Z,0.00
2023-01-04T07:37:19.907Z,0.10
2023-01-04T07:39:49.100Z,0.10
2023-01-04T07:42:18.874Z,0.13
2023-01-04T07:44:47.084Z,0.10
2023-01-04T07:47:15.315Z,0.10
2023-01-04T07:49:43.667Z,0.10
2023-01-04T07:52:11.956Z,0.40
2023-01-04T07:54:40.197Z,0.00
2023-01-04T07:57:08.670Z,0.00
2023-01-04T07:59:36.968Z,0.10
2023-01-04T08:02:05.365Z,0.00
2023-01-04T08:04:35.376Z,0.10
2023-01-04T08:07:03.515Z,0.10
2023-01-04T08:09:31.777Z,0.03
2023-01-04T08:12:00.025Z,0.00
2023-01-04T08:14:28.241Z,0.00
2023-01-04T08:16:56.475Z,0.10
2023-01-04T08:19:24.778Z,0.00
2023-01-04T08:21:53.045Z,0.00
2023-01-04T08:24:21.272Z,0.00
2023-01-04T08:26:49.487Z,0.10
2023-01-04T08:29:17.689Z,0.10
2023-01-04T08:31:46.112Z,0.05
2023-01-04T08:34:14.463Z,0.10
2023-01-04T08:36:47.248Z,0.20
2023-01-04T08:39:15.496Z,0.00
2023-01-04T08:41:59.417Z,0.10
2023-01-04T08:44:24.790Z,0.10
2023-01-04T08:46:53.862Z,0.10
2023-01-04T08:49:22.562Z,0.10
2023-01-04T08:51:50.853Z,0.10
2023-01-04T08:54:19.123Z,0.00
2023-01-04T08:56:47.322Z,0.10
2023-01-04T08:59:15.550Z,0.00
2023-01-04T09:01:43.884Z,0.10
2023-01-04T09:04:12.177Z,0.00
2023-01-04T09:06:40.492Z,0.00
2023-01-04T09:09:08.795Z,0.00
2023-01-04T09:11:38.361Z,0.10
2023-01-04T09:14:09.422Z,0.00
2023-01-04T09:16:38.811Z,0.05
2023-01-04T09:19:08.067Z,0.10
2023-01-04T09:21:36.418Z,0.00
2023-01-04T09:24:05.053Z,0.00
2023-01-04T09:26:33.244Z,0.15
2023-01-04T09:29:01.579Z,0.10
2023-01-04T09:31:29.982Z,0.10
2023-01-04T09:34:16.150Z,0.10
2023-01-04T09:36:28.738Z,0.10
2023-01-04T09:38:57.286Z,0.30
2023-01-04T09:41:29.959Z,0.10
2023-01-04T09:46:30.059Z,0.10
2023-01-04T09:51:27.337Z,0.10
2023-01-04T09:54:00.069Z,0.10
2023-01-04T09:58:55.836Z,0.35
2023-01-04T10:01:25.673Z,0.00
2023-01-04T10:03:58.871Z,0.10
2023-01-04T10:06:27.141Z,0.00
2023-01-04T10:08:56.898Z,0.00
2023-01-04T10:11:38.729Z,0.10
2023-01-04T10:14:10.126Z,0.05
2023-01-04T10:21:10.340Z,0.00
2023-01-04T10:21:58.878Z,0.10
2023-01-04T10:24:34.736Z,0.10
2023-01-04T10:27:13.702Z,0.10
2023-01-04T10:29:52.145Z,0.10
2023-01-04T10:32:21.993Z,0.65
2023-01-04T10:34:50.569Z,0.10
2023-01-04T10:37:20.920Z,0.00
2023-01-04T10:39:54.979Z,0.00
2023-01-04T10:42:33.899Z,0.20
2023-01-04T10:45:09.861Z,0.10
2023-01-04T10:47:45.672Z,0.10
2023-01-04T10:50:15.424Z,0.10
2023-01-04T10:52:48.098Z,0.10
2023-01-04T10:58:01.819Z,0.00
2023-01-04T11:00:31.646Z,0.00
2023-01-04T11:03:08.905Z,0.00
2023-01-04T11:05:41.643Z,0.10
2023-01-04T11:08:14.466Z,0.10
2023-01-04T11:10:53.284Z,0.10
2023-01-04T11:13:21.480Z,0.10
2023-01-04T11:15:49.810Z,0.10
2023-01-04T11:18:18.131Z,0.10
2023-01-04T11:20:46.354Z,0.10
2023-01-04T11:23:16.039Z,0.10
2023-01-04T11:25:55.788Z,0.10
2023-01-04T11:28:41.141Z,0.00
2023-01-04T11:31:10.929Z,0.00
2023-01-04T11:33:58.393Z,0.10
2023-01-04T11:36:34.081Z,0.00
2023-01-04T11:39:02.764Z,0.10
2023-01-04T11:41:31.029Z,0.10
2023-01-04T11:44:00.815Z,0.00
2023-01-04T11:46:29.457Z,0.10
2023-01-04T11:48:57.952Z,0.00
2023-01-04T11:51:30.366Z,0.03
2023-01-04T11:54:03.026Z,0.10
2023-01-04T11:59:20.940Z,0.10
2023-01-04T12:01:46.275Z,0.00
2023-01-04T12:04:16.073Z,0.30
2023-01-04T12:06:57.675Z,0.10
2023-01-04T12:09:26.171Z,0.03
2023-01-04T12:11:55.985Z,0.00
2023-01-04T12:14:28.720Z,0.00
2023-01-04T12:19:25.270Z,0.00
2023-01-04T12:21:54.851Z,0.10
2023-01-04T12:24:24.498Z,0.00
2023-01-04T12:26:53.181Z,0.10
2023-01-04T12:29:25.593Z,0.00
2023-01-04T12:32:04.241Z,0.35
2023-01-04T12:34:34.090Z,0.10
2023-01-04T12:37:06.036Z,0.00
2023-01-04T12:39:39.895Z,0.10
2023-01-04T12:42:09.707Z,0.10
2023-01-04T12:44:39.603Z,0.35
2023-01-04T12:47:27.371Z,0.10
2023-01-04T12:50:00.093Z,0.10
2023-01-04T12:52:37.758Z,0.00
2023-01-04T12:55:01.102Z,0.10
2023-01-04T12:57:36.819Z,0.00
2023-01-04T13:00:08.282Z,0.10
2023-01-04T13:02:38.913Z,0.10
2023-01-04T13:05:55.376Z,0.00
2023-01-04T13:07:51.786Z,0.10
2023-01-04T13:10:36.236Z,0.10
2023-01-04T13:13:05.989Z,0.00
2023-01-04T13:15:51.982Z,0.10
2023-01-04T13:18:21.772Z,0.00
2023-01-04T13:20:50.931Z,0.00
2023-01-04T13:23:19.230Z,0.10
2023-01-04T13:25:47.529Z,0.10
2023-01-04T13:28:19.567Z,0.00
2023-01-04T13:30:47.944Z,0.10
2023-01-04T13:33:27.753Z,0.00
2023-01-04T13:35:56.085Z,3.47
2023-01-04T13:38:24.377Z,4.45
2023-01-04T13:40:52.619Z,4.40
2023-01-04T13:43:31.184Z,5.22
2023-01-04T13:46:17.890Z,3.60
2023-01-04T13:48:48.598Z,3.50
2023-01-04T13:51:30.628Z,4.20
2023-01-04T13:53:59.085Z,4.75
2023-01-04T13:56:33.359Z,5.37
2023-01-04T13:59:01.836Z,2.90
2023-01-04T14:01:40.688Z,3.55
2023-01-04T14:04:24.219Z,5.12
2023-01-04T14:06:54.761Z,3.17
2023-01-04T14:09:24.829Z,2.83
2023-01-04T14:14:41.857Z,1.95
2023-01-04T14:17:14.532Z,2.72
2023-01-04T14:22:26.063Z,2.35
2023-01-04T14:25:08.892Z,2.33
2023-01-04T14:27:32.083Z,1.95
2023-01-04T14:30:00.787Z,4.17
2023-01-04T14:32:29.129Z,3.52
2023-01-04T14:34:57.491Z,1.98
2023-01-04T14:37:25.781Z,3.50
2023-01-04T14:39:54.012Z,2.47
2023-01-04T14:42:26.218Z,3.45
2023-01-04T14:44:55.273Z,2.10
2023-01-04T14:47:23.811Z,3.42
2023-01-04T14:49:52.924Z,3.62
2023-01-04T14:52:22.948Z,4.65
2023-01-04T14:54:51.201Z,4.80
2023-01-04T14:57:21.396Z,4.28
2023-01-04T14:59:49.938Z,5.72
2023-01-04T15:02:19.087Z,5.60
2023-01-04T15:04:47.459Z,5.35
2023-01-04T15:07:33.706Z,7.80
2023-01-04T15:10:02.575Z,5.40
2023-01-04T15:12:30.866Z,8.28
2023-01-04T15:14:59.046Z,8.93
2023-01-04T15:17:27.306Z,7.40
2023-01-04T15:19:55.501Z,8.70
2023-01-04T15:22:23.716Z,9.85
2023-01-04T15:24:51.996Z,11.85
2023-01-04T15:27:24.379Z,8.40
2023-01-04T15:29:50.037Z,10.32
2023-01-04T15:32:18.305Z,9.13
2023-01-04T15:34:48.075Z,9.80
2023-01-04T15:37:23.417Z,7.92
2023-01-04T15:39:46.628Z,11.25
2023-01-04T15:42:32.629Z,8.25
2023-01-04T15:45:00.879Z,9.50
2023-01-04T15:47:31.915Z,7.97
2023-01-04T15:50:00.281Z,8.50
2023-01-04T15:52:28.477Z,6.62
2023-01-04T15:54:56.706Z,8.03
2023-01-04T15:57:24.937Z,9.13
2023-01-04T15:59:53.133Z,8.58
2023-01-04T16:02:21.765Z,7.33
2023-01-04T16:04:50.362Z,7.28
2023-01-04T16:07:18.941Z,8.25
2023-01-04T16:09:47.512Z,7.15
2023-01-04T16:12:33.805Z,6.12
2023-01-04T16:15:02.236Z,8.20
2023-01-04T16:17:30.418Z,7.12
2023-01-04T16:19:58.689Z,9.10
2023-01-04T16:22:26.898Z,9.25
2023-01-04T16:25:14.024Z,9.80
2023-01-04T16:27:29.691Z,12.25
2023-01-04T16:29:54.834Z,9.15
2023-01-04T16:32:23.173Z,12.13
2023-01-04T16:34:51.439Z,12.68
2023-01-04T16:37:20.147Z,12.07
2023-01-04T16:40:07.725Z,11.55
2023-01-04T16:42:21.207Z,18.65
2023-01-04T16:44:49.383Z,14.60
2023-01-04T16:47:17.722Z,15.88
2023-01-04T16:49:46.021Z,13.43
2023-01-04T16:52:14.236Z,11.70
2023-01-04T16:54:42.465Z,13.30
2023-01-04T16:57:10.668Z,12.50
2023-01-04T16:59:38.918Z,13.55
2023-01-04T17:02:07.260Z,11.35
2023-01-04T17:04:35.614Z,14.00
2023-01-04T17:07:04.704Z,13.50
2023-01-04T17:09:32.906Z,13.15
2023-01-04T17:12:44.986Z,11.68
2023-01-04T17:14:33.456Z,15.50
2023-01-04T17:17:03.391Z,15.65
2023-01-04T17:19:31.609Z,15.65
2023-01-04T17:21:59.835Z,13.32
2023-01-04T17:24:28.043Z,14.30
2023-01-04T17:26:56.244Z,14.80
2023-01-04T17:29:24.444Z,17.77
2023-01-04T17:31:52.792Z,17.85
2023-01-04T17:34:23.232Z,15.08
2023-01-04T17:36:51.720Z,23.42
2023-01-04T17:39:20.796Z,11.53
2023-01-04T17:41:49.055Z,19.10
2023-01-04T17:44:17.349Z,22.87
2023-01-04T17:46:45.556Z,26.65
2023-01-04T17:49:23.120Z,23.50
2023-01-04T17:51:43.759Z,21.05
2023-01-04T17:54:13.763Z,28.38
2023-01-04T17:56:42.135Z,26.02
2023-01-04T17:59:11.737Z,40.67
2023-01-04T18:01:40.034Z,39.27
2023-01-04T18:04:08.831Z,39.20
2023-01-04T18:06:37.448Z,38.02
2023-01-04T18:09:09.112Z,40.85
2023-01-04T18:11:37.539Z,34.73
2023-01-04T18:14:09.874Z,37.58
2023-01-04T18:16:37.248Z,48.83
2023-01-04T18:19:05.625Z,57.05
2023-01-04T18:21:33.857Z,35.68
2023-01-04T18:26:53.425Z,48.33
2023-01-04T18:29:04.489Z,49.05
2023-01-04T18:31:33.010Z,57.13
2023-01-04T18:34:01.185Z,44.58
2023-01-04T18:36:32.606Z,41.73
2023-01-04T18:39:00.973Z,45.83
2023-01-04T18:41:29.328Z,58.95
2023-01-04T18:44:22.392Z,45.03
2023-01-04T18:46:29.163Z,45.15
2023-01-04T18:48:58.752Z,47.08
2023-01-04T18:51:28.203Z,51.33
2023-01-04T18:53:56.785Z,58.60
2023-01-04T18:56:24.973Z,51.08
2023-01-04T18:58:53.173Z,48.92
2023-01-04T19:01:22.765Z,42.20
2023-01-04T19:03:51.126Z,44.73
2023-01-04T19:06:20.485Z,41.53
2023-01-04T19:08:55.194Z,45.08
2023-01-04T19:11:19.180Z,44.03
2023-01-04T19:13:48.452Z,48.42
2023-01-04T19:16:16.708Z,50.85
2023-01-04T19:18:45.077Z,45.23
2023-01-04T19:21:13.300Z,54.77
2023-01-04T19:23:41.525Z,56.77
2023-01-04T19:26:09.837Z,49.60
2023-01-04T19:28:38.127Z,58.68
2023-01-04T19:31:07.973Z,50.20
2023-01-04T19:33:36.748Z,50.43
2023-01-04T19:36:09.502Z,34.65
2023-01-04T19:41:05.556Z,59.58
2023-01-04T19:43:33.956Z,66.00
2023-01-04T19:46:02.299Z,53.40
2023-01-04T19:48:31.411Z,63.80
2023-01-04T19:51:03.717Z,58.90
2023-01-04T19:53:32.010Z,51.98
2023-01-04T19:56:00.207Z,51.30
2023-01-04T19:58:28.543Z,52.15
2023-01-04T20:00:56.897Z,50.83
2023-01-04T20:03:27.271Z,46.75
2023-01-04T20:05:55.645Z,58.68
2023-01-04T20:08:23.883Z,58.83
2023-01-04T20:10:55.813Z,63.15
2023-01-04T20:13:24.163Z,49.60
2023-01-04T20:15:52.679Z,54.35
2023-01-04T20:18:21.643Z,54.77
2023-01-04T20:20:49.850Z,51.50
2023-01-04T20:23:18.350Z,51.20
2023-01-04T20:25:47.823Z,51.13
2023-01-04T20:28:17.057Z,56.58
2023-01-04T20:30:45.303Z,46.90
2023-01-04T20:33:13.655Z,49.27
2023-01-04T20:35:42.973Z,54.08
2023-01-04T20:38:11.346Z,56.13
2023-01-04T20:40:40.497Z,41.58
2023-01-04T20:43:27.571Z,48.68
2023-01-04T20:45:55.819Z,60.45
2023-01-04T20:48:25.675Z,60.33
2023-01-04T20:50:54.058Z,55.90
2023-01-04T20:53:22.289Z,48.02
2023-01-04T20:55:50.594Z,54.00
2023-01-04T20:58:18.978Z,50.65
2023-01-04T21:00:47.553Z,52.58
2023-01-04T21:03:16.788Z,61.98
2023-01-04T21:05:45.577Z,55.58
2023-01-04T21:08:13.844Z,49.75
2023-01-04T21:10:43.321Z,54.67
2023-01-04T21:13:12.304Z,48.15
2023-01-04T21:15:41.743Z,53.42
2023-01-04T21:18:11.861Z,52.75
2023-01-04T21:20:41.602Z,47.75
2023-01-04T21:23:11.357Z,52.95
2023-01-04T21:25:40.551Z,53.05
2023-01-04T21:28:08.936Z,46.08
2023-01-04T21:30:38.644Z,51.90
2023-01-04T21:33:07.403Z,52.85
2023-01-04T21:35:35.610Z,54.10
2023-01-04T21:38:04.793Z,42.85
2023-01-04T21:40:33.777Z,53.70
2023-01-04T21:43:01.979Z,47.35
2023-01-04T21:45:30.382Z,50.65
2023-01-04T21:47:58.619Z,64.22
2023-01-04T21:50:28.456Z,55.00
2023-01-04T21:52:57.416Z,42.83
2023-01-04T21:55:30.946Z,57.35
2023-01-04T21:57:55.522Z,48.35
2023-01-04T22:00:23.874Z,58.20
2023-01-04T22:02:52.162Z,68.67
2023-01-04T22:05:20.522Z,42.95
2023-01-04T22:07:48.753Z,59.90
2023-01-04T22:10:17.416Z,47.23
2023-01-04T22:12:47.310Z,62.27
2023-01-04T22:15:15.599Z,55.52
2023-01-04T22:17:43.807Z,63.75
2023-01-04T22:20:12.279Z,50.33
2023-01-04T22:22:40.595Z,50.73
2023-01-04T22:25:09.027Z,38.85
2023-01-04T22:27:37.235Z,45.50
2023-01-04T22:30:05.999Z,55.28
2023-01-04T22:32:34.226Z,47.43
2023-01-04T22:35:02.438Z,39.92
2023-01-04T22:37:30.716Z,53.10
2023-01-04T22:39:58.919Z,49.03
2023-01-04T22:42:27.406Z,52.00
2023-01-04T22:44:55.633Z,61.40
2023-01-04T22:47:24.050Z,45.58
2023-01-04T22:49:52.227Z,57.98
2023-01-04T22:52:20.522Z,56.80
2023-01-04T22:54:48.855Z,42.10
2023-01-04T22:57:17.151Z,46.08
2023-01-04T22:59:45.340Z,46.15
2023-01-04T23:02:14.224Z,36.95
2023-01-04T23:04:42.559Z,39.73
2023-01-04T23:07:10.862Z,43.10
2023-01-04T23:09:39.167Z,40.00
2023-01-04T23:12:07.587Z,45.15
2023-01-04T23:14:35.774Z,45.65
2023-01-04T23:17:03.991Z,49.98
2023-01-04T23:19:33.915Z,50.35
2023-01-04T23:22:04.091Z,40.70
2023-01-04T23:24:33.952Z,46.18
2023-01-04T23:27:02.423Z,45.83
2023-01-04T23:29:30.594Z,47.50
2023-01-04T23:31:59.352Z,43.05
2023-01-04T23:34:28.645Z,54.48
2023-01-04T23:36:56.913Z,44.30
2023-01-04T23:39:25.121Z,56.37
2023-01-04T23:41:53.352Z,52.98
2023-01-04T23:44:25.324Z,51.40
2023-01-04T23:46:57.744Z,52.75
2023-01-04T23:49:26.684Z,46.53
2023-01-04T23:51:55.172Z,38.85
2023-01-04T23:54:23.512Z,47.58
2023-01-04T23:56:51.787Z,62.48
2023-01-04T23:59:20.517Z,45.28
